Time;durP1;ratioP1;P1;durP2;ratioP2;P2;SDS_P1;SDS_P2;PMS_P1;PMS_P2;Temp;Humidity;BMP_temperature;BMP_pressure;BME280_temperature;BME280_humidity;BME280_pressure;Samples;Min_cycle;Max_cycle;Signal;HPM_P1;HPM_P2
2022/07/02 00:00:38;;;;;;;;;;;;;;;-142.75;100.00;77296.72;4972725;28;20399;-67
2022/07/02 00:03:04;;;;;;;;;;;;;;;-142.75;100.00;77298.69;4972036;28;19918;-67
2022/07/02 00:05:31;;;;;;;;;;;;;;;-142.75;100.00;77298.69;4972489;28;19975;-67
2022/07/02 00:07:56;;;;;;;;;;;;;;;-142.75;100.00;77302.63;4972421;28;19914;-67
2022/07/02 00:10:22;;;;;;;;;;;;;;;-142.75;100.00;77300.66;4972614;28;19921;-67
2022/07/02 00:12:47;;;;;;;;;;;;;;;-142.75;100.00;77302.63;4972508;28;19914;-67
2022/07/02 00:15:14;;;;;;;;;;;;;;;-142.75;100.00;77298.69;4972346;28;19914;-66
2022/07/02 00:17:39;;;;;;;;;;;;;;;-142.75;100.00;77294.75;4972491;28;20009;-67
2022/07/02 00:20:04;;;;;;;;;;;;;;;-142.75;100.00;77298.69;4972133;28;20001;-67
2022/07/02 00:22:31;;;;;;;;;;;;;;;-142.75;100.00;77290.81;4972260;28;20020;-67
2022/07/02 00:24:56;;;;;;;;;;;;;;;-142.75;100.00;77296.72;4972420;28;19920;-67
2022/07/02 00:27:21;;;;;;;;;;;;;;;-142.75;100.00;77288.84;4970954;28;19914;-66
2022/07/02 00:29:50;;;;;;;;;;;;;;;-142.75;100.00;77288.84;4972033;28;19914;-67
2022/07/02 00:32:16;;;;;;;;;;;;;;;-142.75;100.00;77284.91;4972267;28;19915;-67
2022/07/02 00:34:43;;;;;;;;;;;;;;;-142.75;100.00;77282.94;4972090;28;19920;-66
2022/07/02 00:37:09;;;;;;;;;;;;;;;-142.75;100.00;77290.81;4972108;28;19914;-67
2022/07/02 00:39:35;;;;;;;;;;;;;;;-142.75;100.00;77298.69;4971851;28;19956;-67
2022/07/02 00:42:01;;;;;;;;;;;;;;;-142.75;100.00;77296.72;4972073;28;19954;-67
2022/07/02 00:44:26;;;;;;;;;;;;;;;-142.75;100.00;77296.72;4972055;28;19922;-67
2022/07/02 00:46:52;;;;;;;;;;;;;;;-142.75;100.00;77292.78;4972011;28;20299;-66
2022/07/02 00:49:17;;;;;;;;;;;;;;;-142.75;100.00;77302.63;4971548;28;19914;-67
2022/07/02 00:51:43;;;;;;;;;;;;;;;-142.75;100.00;77300.66;4971939;28;19956;-67
2022/07/02 00:54:08;;;;;;;;;;;;;;;-142.75;100.00;77304.59;4972017;28;20342;-66
2022/07/02 00:56:33;;;;;;;;;;;;;;;-142.75;100.00;77314.44;4971786;28;19918;-66
2022/07/02 00:58:58;;;;;;;;;;;;;;;-142.75;100.00;77314.44;4971540;28;19914;-66
2022/07/02 01:01:24;;;;;;;;;;;;;;;-142.75;100.00;77312.47;4971748;28;19918;-67
2022/07/02 01:03:49;;;;;;;;;;;;;;;-142.75;100.00;77310.50;4971654;28;19918;-66
2022/07/02 01:06:16;;;;;;;;;;;;;;;-142.75;100.00;77316.41;4971654;28;19914;-67
2022/07/02 01:11:26;;;;;;;;;;;;;;;-142.75;100.00;77310.50;4972014;28;19933;-67
2022/07/02 01:13:54;;;;;;;;;;;;;;;-142.75;100.00;77324.28;4971003;28;19914;-66
2022/07/02 01:16:19;;;;;;;;;;;;;;;-142.75;100.00;77322.31;4970992;28;19918;-67
2022/07/02 01:18:44;;;;;;;;;;;;;;;-142.75;100.00;77318.38;4971179;28;19914;-67
2022/07/02 01:21:09;;;;;;;;;;;;;;;-142.75;100.00;77328.22;4971458;28;19918;-67
2022/07/02 01:23:34;;;;;;;;;;;;;;;-142.75;100.00;77318.38;4971450;28;19914;-66
2022/07/02 01:26:00;;;;;;;;;;;;;;;-142.75;100.00;77324.28;4971703;28;20350;-66
2022/07/02 01:28:25;;;;;;;;;;;;;;;-142.75;100.00;77328.22;4971159;28;19920;-67
2022/07/02 01:30:51;;;;;;;;;;;;;;;-142.75;100.00;77322.31;4971362;28;19918;-67
2022/07/02 01:33:16;;;;;;;;;;;;;;;-142.75;100.00;77328.22;4971209;28;19956;-67
2022/07/02 01:35:42;;;;;;;;;;;;;;;-142.75;100.00;77328.22;4971204;28;19914;-67
2022/07/02 01:38:07;;;;;;;;;;;;;;;-142.75;100.00;77324.28;4970952;28;19914;-67
2022/07/02 01:40:32;;;;;;;;;;;;;;;-142.75;100.00;77328.22;4971214;28;20357;-67
2022/07/02 01:42:57;;;;;;;;;;;;;;;-142.75;100.00;77334.13;4971180;28;19934;-67
2022/07/02 01:45:22;;;;;;;;;;;;;;;-142.75;100.00;77330.19;4971047;28;20019;-67
2022/07/02 01:47:48;;;;;;;;;;;;;;;-142.75;100.00;77345.94;4970865;28;19914;-67
2022/07/02 01:50:13;;;;;;;;;;;;;;;-142.75;100.00;77353.81;4970928;28;20398;-66
2022/07/02 01:52:38;;;;;;;;;;;;;;;-142.75;100.00;77353.81;4971029;28;19967;-66
2022/07/02 01:55:04;;;;;;;;;;;;;;;-142.75;100.00;77357.75;4970902;28;20364;-66
2022/07/02 01:57:33;;;;;;;;;;;;;;;-142.75;100.00;77369.56;4971001;28;19918;-66
2022/07/02 01:59:58;;;;;;;;;;;;;;;-142.75;100.00;77361.69;4970730;28;20401;-67
2022/07/02 02:02:23;;;;;;;;;;;;;;;-142.75;100.00;77373.50;4970724;28;19918;-66
2022/07/02 02:04:49;;;;;;;;;;;;;;;-142.75;100.00;77369.56;4970899;28;19930;-67
2022/07/02 02:07:14;;;;;;;;;;;;;;;-142.75;100.00;77367.59;4970790;28;20295;-66
2022/07/02 02:09:39;;;;;;;;;;;;;;;-142.75;100.00;77373.50;4970492;28;19948;-66
2022/07/02 02:12:04;;;;;;;;;;;;;;;-142.75;100.00;77377.44;4970774;28;19921;-67
2022/07/02 02:14:30;;;;;;;;;;;;;;;-142.75;100.00;77379.41;4969476;28;19918;-67
2022/07/02 02:16:55;;;;;;;;;;;;;;;-142.75;100.00;77375.47;4970439;28;19918;-66
2022/07/02 02:19:20;;;;;;;;;;;;;;;-142.75;100.00;77373.50;4970394;28;19914;-67
2022/07/02 02:21:45;;;;;;;;;;;;;;;-142.75;100.00;77381.38;4969327;28;19919;-67
2022/07/02 02:24:10;;;;;;;;;;;;;;;-142.75;100.00;77389.25;4970642;28;19915;-67
2022/07/02 02:26:36;;;;;;;;;;;;;;;-142.75;100.00;77383.34;4974614;28;19914;-66
2022/07/02 02:29:01;;;;;;;;;;;;;;;-142.75;100.00;77389.25;4976744;28;19937;-66
2022/07/02 02:31:27;;;;;;;;;;;;;;;-142.75;100.00;77387.28;4976907;28;19914;-67
2022/07/02 02:33:52;;;;;;;;;;;;;;;-142.75;100.00;77395.16;4977019;28;20009;-66
2022/07/02 02:36:18;;;;;;;;;;;;;;;-142.75;100.00;77399.09;4976928;28;19914;-66
2022/07/02 02:38:46;;;;;;;;;;;;;;;-142.75;100.00;77406.97;4976656;28;19914;-67
2022/07/02 02:41:11;;;;;;;;;;;;;;;-142.75;100.00;77420.75;4976832;28;19961;-66
2022/07/02 02:43:37;;;;;;;;;;;;;;;-142.75;100.00;77410.91;4976870;28;20359;-66
2022/07/02 02:46:02;;;;;;;;;;;;;;;-142.75;100.00;77414.84;4976633;28;19920;-67
2022/07/02 02:48:28;;;;;;;;;;;;;;;-142.75;100.00;77418.78;4976569;28;20261;-66
2022/07/02 02:50:54;;;;;;;;;;;;;;;-142.75;100.00;77416.81;4976832;28;20012;-66
2022/07/02 02:53:19;;;;;;;;;;;;;;;-142.75;100.00;77408.94;4976850;28;19921;-67
2022/07/02 02:55:44;;;;;;;;;;;;;;;-142.75;100.00;77410.91;4976659;28;19914;-66
2022/07/02 02:58:09;;;;;;;;;;;;;;;-142.75;100.00;77410.91;4976437;28;19918;-66
2022/07/02 03:00:35;;;;;;;;;;;;;;;-142.75;100.00;77420.75;4975294;28;19914;-66
2022/07/02 03:03:00;;;;;;;;;;;;;;;-142.75;100.00;77416.81;4976573;28;19925;-67
2022/07/02 03:05:25;;;;;;;;;;;;;;;-142.75;100.00;77432.56;4976547;28;19914;-67
2022/07/02 03:07:51;;;;;;;;;;;;;;;-142.75;100.00;77424.69;4976434;28;19918;-66
2022/07/02 03:10:16;;;;;;;;;;;;;;;-142.75;100.00;77428.63;4976520;28;19914;-66
2022/07/02 03:12:41;;;;;;;;;;;;;;;-142.75;100.00;77436.50;4976517;28;19914;-66
2022/07/02 03:15:07;;;;;;;;;;;;;;;-142.75;100.00;77442.41;4976157;28;20341;-66
2022/07/02 03:17:32;;;;;;;;;;;;;;;-142.75;100.00;77436.50;4976476;28;19914;-66
2022/07/02 03:19:57;;;;;;;;;;;;;;;-142.75;100.00;77448.34;4976308;28;20342;-66
2022/07/02 03:22:22;;;;;;;;;;;;;;;-142.75;100.00;77442.41;4975102;28;19922;-66
2022/07/02 03:24:47;;;;;;;;;;;;;;;-142.75;100.00;77448.34;4976355;28;19914;-67
2022/07/02 03:27:12;;;;;;;;;;;;;;;-142.75;100.00;77448.34;4976260;28;19915;-66
2022/07/02 03:29:38;;;;;;;;;;;;;;;-142.75;100.00;77452.25;4975921;28;19914;-66
2022/07/02 03:32:03;;;;;;;;;;;;;;;-142.75;100.00;77454.25;4976328;28;19981;-66
2022/07/02 03:34:28;;;;;;;;;;;;;;;-142.75;100.00;77456.22;4976258;28;19957;-67
2022/07/02 03:36:53;;;;;;;;;;;;;;;-142.75;100.00;77460.13;4975137;28;19921;-66
2022/07/02 03:39:19;;;;;;;;;;;;;;;-142.75;100.00;77460.13;4972302;28;20010;-67
2022/07/02 03:41:44;;;;;;;;;;;;;;;-142.75;100.00;77460.13;4972911;28;19918;-66
2022/07/02 03:44:09;;;;;;;;;;;;;;;-142.75;100.00;77464.09;4972889;28;20422;-67
2022/07/02 03:46:34;;;;;;;;;;;;;;;-142.75;100.00;77462.13;4972815;28;19921;-66
2022/07/02 03:48:59;;;;;;;;;;;;;;;-142.75;100.00;77458.16;4972614;28;20398;-67
2022/07/02 03:51:25;;;;;;;;;;;;;;;-142.75;100.00;77460.13;4972860;28;19914;-66
2022/07/02 03:53:50;;;;;;;;;;;;;;;-142.75;100.00;77464.09;4972847;28;19925;-66
2022/07/02 03:56:15;;;;;;;;;;;;;;;-142.75;100.00;77462.13;4972739;28;20009;-66
2022/07/02 03:58:40;;;;;;;;;;;;;;;-142.75;100.00;77471.97;4972443;28;20016;-67
2022/07/02 04:01:07;;;;;;;;;;;;;;;-142.75;100.00;77468.03;4972565;28;20059;-67
2022/07/02 04:03:32;;;;;;;;;;;;;;;-142.75;100.00;77479.84;4972765;28;19914;-67
2022/07/02 04:05:57;;;;;;;;;;;;;;;-142.75;100.00;77468.03;4972599;28;19967;-66
2022/07/02 04:08:23;;;;;;;;;;;;;;;-142.75;100.00;77468.03;4972298;28;20380;-67
2022/07/02 04:10:48;;;;;;;;;;;;;;;-142.75;100.00;77468.03;4972553;28;19914;-66
2022/07/02 04:13:13;;;;;;;;;;;;;;;-142.75;100.00;77471.97;4972481;28;19918;-66
2022/07/02 04:15:38;;;;;;;;;;;;;;;-142.75;100.00;77468.03;5000990;22;19918;-69
2022/07/02 04:18:03;;;;;;;;;;;;;;;-142.75;100.00;77468.03;5051871;28;19927;-70
2022/07/02 04:20:29;;;;;;;;;;;;;;;-142.75;100.00;77475.91;5053163;28;19919;-70
2022/07/02 04:22:54;;;;;;;;;;;;;;;-142.75;100.00;77468.03;5054063;28;19952;-69
2022/07/02 04:25:19;;;;;;;;;;;;;;;-142.75;100.00;77462.13;5054110;28;19923;-71
2022/07/02 04:27:45;;;;;;;;;;;;;;;-142.75;100.00;77456.22;5036008;28;19952;-68
2022/07/02 04:30:10;;;;;;;;;;;;;;;-142.75;100.00;77448.34;5053797;28;19913;-70
2022/07/02 04:32:36;;;;;;;;;;;;;;;-142.75;100.00;77444.38;5053916;28;19913;-68
2022/07/02 04:35:01;;;;;;;;;;;;;;;-142.75;100.00;77440.44;5036066;28;19982;-69
2022/07/02 04:37:26;;;;;;;;;;;;;;;-142.75;100.00;77444.38;5053791;28;19928;-70
2022/07/02 04:39:51;;;;;;;;;;;;;;;-142.75;100.00;77440.44;5035707;28;19966;-68
2022/07/02 04:42:17;;;;;;;;;;;;;;;-142.75;100.00;77438.47;5053661;28;20074;-70
2022/07/02 04:44:42;;;;;;;;;;;;;;;-142.75;100.00;77442.41;5035875;28;19967;-70
2022/07/02 04:47:07;;;;;;;;;;;;;;;-142.75;100.00;77438.47;5053644;28;20002;-69
2022/07/02 04:49:32;;;;;;;;;;;;;;;-142.75;100.00;77442.41;5053270;28;19913;-70
2022/07/02 04:51:58;;;;;;;;;;;;;;;-142.75;100.00;77440.44;5035755;28;19913;-69
2022/07/02 04:54:24;;;;;;;;;;;;;;;-142.75;100.00;77436.50;5053536;28;19913;-70
2022/07/02 04:56:49;;;;;;;;;;;;;;;-142.75;100.00;77438.47;5053464;28;19920;-69
2022/07/02 04:59:14;;;;;;;;;;;;;;;-142.75;100.00;77432.56;5053061;28;19978;-70
2022/07/02 05:01:39;;;;;;;;;;;;;;;-142.75;100.00;77418.78;5053368;28;19912;-70
2022/07/02 05:04:05;;;;;;;;;;;;;;;-142.75;100.00;77420.75;5053399;28;19916;-70
2022/07/02 05:06:30;;;;;;;;;;;;;;;-142.75;100.00;77418.78;5053254;28;20015;-71
2022/07/02 05:08:55;;;;;;;;;;;;;;;-142.75;100.00;77401.06;5052975;28;19956;-70
2022/07/02 05:11:20;;;;;;;;;;;;;;;-142.75;100.00;77387.28;5053233;28;19949;-69
2022/07/02 05:13:46;;;;;;;;;;;;;;;-142.75;100.00;77365.63;5053076;28;19913;-70
2022/07/02 05:16:11;;;;;;;;;;;;;;;-142.75;100.00;77355.78;5053036;28;19925;-70
2022/07/02 05:18:37;;;;;;;;;;;;;;;-142.75;100.00;77349.88;5052808;28;20441;-69
2022/07/02 05:21:02;;;;;;;;;;;;;;;-142.75;100.00;77328.22;5053031;28;20007;-70
2022/07/02 05:23:27;;;;;;;;;;;;;;;-142.75;100.00;77336.09;5035102;28;19924;-70
2022/07/02 05:25:52;;;;;;;;;;;;;;;-142.75;100.00;77314.44;5052878;28;20275;-69
2022/07/02 05:28:18;;;;;;;;;;;;;;;-142.75;100.00;77308.53;5034781;28;19920;-70
2022/07/02 05:30:44;;;;;;;;;;;;;;;-142.75;100.00;77302.63;5052830;28;19913;-70
2022/07/02 05:33:09;;;;;;;;;;;;;;;-142.75;100.00;77292.78;5052793;28;19920;-70
2022/07/02 05:35:34;;;;;;;;;;;;;;;-142.75;100.00;77298.69;5034959;28;19912;-69
2022/07/02 05:37:59;;;;;;;;;;;;;;;-142.75;100.00;77280.97;5034667;28;19913;-70
2022/07/02 05:40:25;;;;;;;;;;;;;;;-142.75;100.00;77275.06;5034914;28;19917;-70
2022/07/02 05:42:50;;;;;;;;;;;;;;;-142.75;100.00;77253.41;5034794;28;19919;-70
2022/07/02 05:45:15;;;;;;;;;;;;;;;-142.75;100.00;77241.59;5052680;28;19956;-70
2022/07/02 05:47:41;;;;;;;;;;;;;;;-142.75;100.00;77219.94;5052521;28;19920;-70
2022/07/02 05:50:06;;;;;;;;;;;;;;;-142.75;100.00;77204.19;5052427;28;19913;-70
2022/07/02 05:52:32;;;;;;;;;;;;;;;-142.75;100.00;77188.44;5034698;28;19913;-70
2022/07/02 05:54:57;;;;;;;;;;;;;;;-142.75;100.00;77172.69;5034881;28;19948;-70
2022/07/02 05:57:22;;;;;;;;;;;;;;;-142.75;100.00;77153.00;5052368;28;19917;-70
2022/07/02 05:59:47;;;;;;;;;;;;;;;-142.75;100.00;77137.25;5051891;28;19917;-69
2022/07/02 06:02:12;;;;;;;;;;;;;;;-142.75;100.00;77123.47;5051884;28;20024;-70
2022/07/02 06:04:38;;;;;;;;;;;;;;;-142.75;100.00;77117.56;5052345;28;19917;-70
2022/07/02 06:09:47;;;;;;;;;;;;;;;-142.75;100.00;77086.06;5052047;28;20294;-70
2022/07/02 06:12:12;;;;;;;;;;;;;;;-142.75;100.00;77086.06;5052132;28;19913;-70
2022/07/02 06:14:37;;;;;;;;;;;;;;;-142.75;100.00;77074.25;5052273;28;19917;-70
2022/07/02 06:17:02;;;;;;;;;;;;;;;-142.75;100.00;77062.44;5052033;28;19916;-70
2022/07/02 06:19:28;;;;;;;;;;;;;;;-142.75;100.00;77054.56;5051914;28;20439;-70
2022/07/02 06:21:53;;;;;;;;;;;;;;;-142.75;100.00;77044.72;5052020;28;19928;-70
2022/07/02 06:24:18;;;;;;;;;;;;;;;-142.75;100.00;77038.81;5052126;28;19923;-70
2022/07/02 06:26:43;;;;;;;;;;;;;;;-142.75;100.00;77027.00;5051948;28;20306;-69
2022/07/02 06:29:09;;;;;;;;;;;;;;;-142.75;100.00;77007.31;5051760;28;20363;-70
2022/07/02 06:31:34;;;;;;;;;;;;;;;-142.75;100.00;77015.19;5052069;28;19963;-70
2022/07/02 06:34:00;;;;;;;;;;;;;;;-142.75;100.00;77019.13;5034182;28;19966;-69
2022/07/02 06:36:25;;;;;;;;;;;;;;;-142.75;100.00;77011.25;5051937;28;19917;-70
2022/07/02 06:38:50;;;;;;;;;;;;;;;-142.75;100.00;76991.56;5051718;28;19917;-69
2022/07/02 06:42:18;;;;;;;;;;;;;;;-142.75;100.00;76991.56;5033981;28;19913;-70
2022/07/02 06:44:02;;;;;;;;;;;;;;;-142.75;100.00;76983.69;5051779;28;19917;-70
2022/07/02 06:46:27;;;;;;;;;;;;;;;-142.75;100.00;76981.72;5051858;28;19917;-70
2022/07/02 06:48:52;;;;;;;;;;;;;;;-142.75;100.00;76964.00;5051675;28;19913;-68
2022/07/02 06:51:17;;;;;;;;;;;;;;;-142.75;100.00;76948.25;5051869;28;19951;-70
2022/07/02 06:53:42;;;;;;;;;;;;;;;-142.75;100.00;76928.56;5051855;28;19913;-70
2022/07/02 06:56:08;;;;;;;;;;;;;;;-142.75;100.00;76918.72;5033728;28;19939;-70
2022/07/02 06:58:33;;;;;;;;;;;;;;;-142.75;100.00;76904.94;5051536;28;19913;-70
2022/07/02 07:00:58;;;;;;;;;;;;;;;-142.75;100.00;76885.25;5051783;28;19920;-70
2022/07/02 07:03:23;;;;;;;;;;;;;;;-142.75;100.00;76851.78;5051719;28;19936;-70
2022/07/02 07:05:48;;;;;;;;;;;;;;;-142.75;100.00;76834.06;5051674;28;20293;-70
2022/07/02 07:08:14;;;;;;;;;;;;;;;-142.75;100.00;76814.38;5051409;28;19967;-70
2022/07/02 07:10:40;;;;;;;;;;;;;;;-142.75;100.00;76834.06;5051570;28;20011;-69
2022/07/02 07:13:05;;;;;;;;;;;;;;;-142.75;100.00;76816.34;5053083;28;19912;-69
2022/07/02 07:15:30;;;;;;;;;;;;;;;-142.75;100.00;76830.13;5055278;28;19920;-71
2022/07/02 07:17:56;;;;;;;;;;;;;;;-142.75;100.00;76800.63;5037248;28;19917;-70
2022/07/02 07:20:26;;;;;;;;;;;;;;;-142.75;100.00;76778.97;5037454;28;20500;-70
2022/07/02 07:22:52;;;;;;;;;;;;;;;-142.75;100.00;76747.47;5055408;28;20321;-69
2022/07/02 07:25:17;;;;;;;;;;;;;;;-142.75;100.00;76737.63;5055109;28;19925;-70
2022/07/02 07:27:43;;;;;;;;;;;;;;;-142.75;100.00;76771.09;5054974;28;20396;-70
2022/07/02 07:30:08;;;;;;;;;;;;;;;-142.75;100.00;76753.38;5055159;28;19913;-70
2022/07/02 07:32:33;;;;;;;;;;;;;;;-142.75;100.00;76747.47;5055208;28;19922;-69
2022/07/02 07:34:59;;;;;;;;;;;;;;;-142.75;100.00;76739.59;5055107;28;19912;-71
2022/07/02 07:37:24;;;;;;;;;;;;;;;-142.75;100.00;76737.63;5037100;28;19938;-69
2022/07/02 07:39:49;;;;;;;;;;;;;;;-142.75;100.00;76743.53;5054590;28;20362;-70
2022/07/02 07:42:14;;;;;;;;;;;;;;;-142.75;100.00;76731.72;5054908;28;19913;-69
2022/07/02 07:44:39;;;;;;;;;;;;;;;-142.75;100.00;76725.81;5054909;28;19923;-68
2022/07/02 07:47:05;;;;;;;;;;;;;;;-142.75;100.00;76710.06;5036832;28;20390;-68
2022/07/02 07:49:30;;;;;;;;;;;;;;;-142.75;100.00;76690.38;5053077;28;19920;-67
2022/07/02 07:51:55;;;;;;;;;;;;;;;-142.75;100.00;76684.47;5053833;28;19939;-67
2022/07/02 07:54:20;;;;;;;;;;;;;;;-142.75;100.00;76686.44;5035737;28;19913;-67
2022/07/02 07:56:46;;;;;;;;;;;;;;;-142.75;100.00;76662.81;5035824;28;19921;-68
2022/07/02 07:59:11;;;;;;;;;;;;;;;-142.75;100.00;76664.78;5053439;28;19939;-69
2022/07/02 08:01:36;;;;;;;;;;;;;;;-142.75;100.00;76639.19;5053505;28;19916;-70
2022/07/02 08:04:01;;;;;;;;;;;;;;;-142.75;87.97;76686.44;5053507;28;19924;-69
2022/07/02 08:06:26;;;;;;;;;;;;;;;-142.75;96.95;76694.31;5035641;28;19975;-68
2022/07/02 08:08:52;;;;;;;;;;;;;;;-142.75;92.94;76694.31;5053154;28;19967;-69
2022/07/02 08:11:17;;;;;;;;;;;;;;;-142.75;94.16;76680.53;5053560;28;19935;-69
2022/07/02 08:13:42;;;;;;;;;;;;;;;-142.75;100.00;76664.78;5053466;28;20426;-69
2022/07/02 08:16:07;;;;;;;;;;;;;;;-142.75;99.12;76670.69;5053283;28;19921;-68
2022/07/02 08:18:32;;;;;;;;;;;;;;;-142.75;100.00;76676.59;5053048;28;19912;-68
2022/07/02 08:20:58;;;;;;;;;;;;;;;-142.75;100.00;76662.81;5053195;28;19913;-69
2022/07/02 08:23:23;;;;;;;;;;;;;;;-142.75;100.00;76676.59;5052712;28;19924;-68
2022/07/02 08:25:49;;;;;;;;;;;;;;;-142.75;100.00;76649.03;5053016;28;19917;-68
2022/07/02 08:28:14;;;;;;;;;;;;;;;-142.75;100.00;76664.78;5052859;28;20387;-68
2022/07/02 08:30:39;;;;;;;;;;;;;;;-142.75;100.00;76676.59;5053108;28;19913;-67
2022/07/02 08:33:05;;;;;;;;;;;;;;;-142.75;100.00;76652.97;5052865;28;19912;-68
2022/07/02 08:35:30;;;;;;;;;;;;;;;-142.75;100.00;76619.50;5052890;28;19912;-69
2022/07/02 08:37:55;;;;;;;;;;;;;;;-142.75;98.22;76627.38;5052588;28;19913;-67
2022/07/02 08:40:24;;;;;;;;;;;;;;;-142.75;100.00;76607.69;5052755;28;19913;-68
2022/07/02 08:42:50;;;;;;;;;;;;;;;-142.75;93.77;76613.59;5052583;28;19913;-68
2022/07/02 08:45:16;;;;;;;;;;;;;;;-142.75;99.27;76625.41;5052933;28;19963;-69
2022/07/02 08:47:42;;;;;;;;;;;;;;;-142.75;100.00;76597.84;5034469;28;20412;-67
2022/07/02 08:50:09;;;;;;;;;;;;;;;-142.75;100.00;76562.41;5052592;28;19927;-69
2022/07/02 08:52:37;;;;;;;;;;;;;;;-142.75;97.08;76564.38;5052760;28;20019;-69
2022/07/02 08:55:03;;;;;;;;;;;;;;;-142.75;100.00;76532.88;5052568;28;19999;-69
2022/07/02 08:57:31;;;;;;;;;;;;;;;-142.75;98.88;76525.03;5052367;28;19944;-68
2022/07/02 08:59:56;;;;;;;;;;;;;;;-142.75;92.43;76519.13;5034516;28;19932;-69
2022/07/02 09:02:21;;;;;;;;;;;;;;;-142.75;88.67;76534.84;5052443;28;20286;-69
2022/07/02 09:04:48;;;;;;;;;;;;;;;-142.75;97.64;76560.44;5052396;28;19974;-70
2022/07/02 09:07:15;;;;;;;;;;;;;;;-142.75;88.88;76542.72;5034468;28;19920;-70
2022/07/02 09:09:41;;;;;;;;;;;;;;;-142.75;89.63;76556.50;5051968;28;19917;-70
2022/07/02 09:12:10;;;;;;;;;;;;;;;-142.75;91.34;76556.50;5052343;28;19912;-69
2022/07/02 09:14:35;;;;;;;;;;;;;;;-142.75;100.00;76503.38;5052391;28;19920;-69
2022/07/02 09:17:01;;;;;;;;;;;;;;;-142.75;100.00;76462.03;5052014;28;19921;-69
2022/07/02 09:19:26;;;;;;;;;;;;;;;-142.75;93.13;76465.97;5033806;28;20406;-69
2022/07/02 09:21:51;;;;;;;;;;;;;;;-142.75;87.73;76467.94;5051888;28;19916;-69
2022/07/02 09:24:27;;;;;;;;;;;;;;;-142.75;81.95;76495.50;5052072;28;19917;-69
2022/07/02 09:27:00;;;;;;;;;;;;;;;-142.75;94.77;76464.00;5051890;28;19920;-68
2022/07/02 09:29:25;;;;;;;;;;;;;;;-142.75;87.29;76438.41;5051723;28;20037;-68
2022/07/02 09:31:51;;;;;;;;;;;;;;;-142.75;86.30;76440.38;5051871;28;20394;-70
2022/07/02 09:34:26;;;;;;;;;;;;;;;-142.75;82.63;76444.31;5052081;28;20382;-72
2022/07/02 09:36:51;;;;;;;;;;;;;;;-142.75;81.55;76416.75;5032869;28;19935;-67
2022/07/02 09:39:26;;;;;;;;;;;;;;;-142.75;77.25;76444.31;5033476;28;20266;-70
2022/07/02 09:41:51;;;;;;;;;;;;;;;-142.75;84.34;76397.06;5033939;28;19912;-70
2022/07/02 09:44:16;;;;;;;;;;;;;;;-142.75;77.57;76369.50;5052683;28;19924;-70
2022/07/02 09:46:43;;;;;;;;;;;;;;;-142.75;84.22;76322.28;5052491;28;19920;-70
2022/07/02 09:49:08;;;;;;;;;;;;;;;-142.75;82.87;76306.53;5052149;28;20313;-70
2022/07/02 09:51:45;;;;;;;;;;;;;;;-142.75;74.12;76320.31;5052425;28;19917;-69
2022/07/02 09:54:16;;;;;;;;;;;;;;;-142.75;75.72;76308.50;5052501;28;20297;-69
2022/07/02 09:56:49;;;;;;;;;;;;;;;-142.75;80.22;76284.88;5052346;28;19923;-70
2022/07/02 09:59:14;;;;;;;;;;;;;;;-142.75;72.02;76330.16;5052050;28;20374;-69
2022/07/02 10:01:42;;;;;;;;;;;;;;;-142.75;76.10;76334.09;5052196;28;19956;-69
2022/07/02 10:04:07;;;;;;;;;;;;;;;-142.75;74.50;76359.66;5052074;28;20417;-68
2022/07/02 10:06:33;;;;;;;;;;;;;;;-142.75;81.13;76338.03;5052124;28;19916;-70
2022/07/02 10:08:58;;;;;;;;;;;;;;;-142.75;77.12;76282.91;5051895;28;19939;-70
2022/07/02 10:11:25;;;;;;;;;;;;;;;-142.75;75.85;76237.63;5052158;28;19913;-70
2022/07/02 10:13:50;;;;;;;;;;;;;;;-142.75;69.66;76275.03;5051838;28;19974;-69
2022/07/02 10:16:19;;;;;;;;;;;;;;;-142.75;70.95;76296.69;5060842;22;19936;-66
2022/07/02 10:18:44;;;;;;;;;;;;;;;-142.75;66.45;76312.44;4968677;28;19926;-67
2022/07/02 10:21:11;;;;;;;;;;;;;;;-142.75;69.65;76263.22;4968515;28;19914;-68
2022/07/02 10:23:37;;;;;;;;;;;;;;;-142.75;67.67;76219.91;4970582;28;19918;-67
2022/07/02 10:26:02;;;;;;;;;;;;;;;-142.75;70.13;76259.28;4970585;28;19914;-67
2022/07/02 10:28:28;;;;;;;;;;;;;;;-142.75;72.61;76219.91;4968425;28;19914;-68
2022/07/02 10:30:56;;;;;;;;;;;;;;;-142.75;69.32;76282.91;4970596;28;19918;-67
2022/07/02 10:33:21;;;;;;;;;;;;;;;-142.75;67.88;76345.91;4970602;28;19914;-67
2022/07/02 10:35:48;;;;;;;;;;;;;;;-142.75;71.46;76420.69;4970436;28;19914;-67
2022/07/02 10:38:13;;;;;;;;;;;;;;;-142.75;80.09;76422.66;4970154;28;19914;-67
2022/07/02 10:40:48;;;;;;;;;;;;;;;-142.75;81.95;76444.31;4970348;28;19914;-68
2022/07/02 10:43:19;;;;;;;;;;;;;;;-142.75;83.59;76410.84;4969518;28;20410;-68
2022/07/02 10:45:44;;;;;;;;;;;;;;;-142.75;88.12;76397.06;4970392;28;19914;-67
2022/07/02 10:48:11;;;;;;;;;;;;;;;-142.75;85.22;76351.81;4972782;28;20400;-65
2022/07/02 10:50:39;;;;;;;;;;;;;;;-142.75;78.80;76341.97;4973773;28;20277;-65
2022/07/02 10:53:10;;;;;;;;;;;;;;;-142.75;76.54;76377.38;4973772;28;20388;-68
2022/07/02 10:55:36;;;;;;;;;;;;;;;-142.75;78.36;76414.78;4973600;28;20021;-66
2022/07/02 10:58:06;;;;;;;;;;;;;;;-142.75;79.99;76434.47;4970126;28;20000;-68
2022/07/02 11:00:32;;;;;;;;;;;;;;;-142.75;83.21;76473.84;4973657;28;20037;-68
2022/07/02 11:02:58;;;;;;;;;;;;;;;-142.75;88.30;76467.94;4973507;28;20299;-67
2022/07/02 11:05:24;;;;;;;;;;;;;;;-142.75;92.33;76471.88;4973620;28;19941;-68
2022/07/02 11:07:49;;;;;;;;;;;;;;;-142.75;100.00;76458.09;4973369;28;19957;-68
2022/07/02 11:10:14;;;;;;;;;;;;;;;-142.75;97.34;76432.50;4973411;28;20358;-68
2022/07/02 11:12:43;;;;;;;;;;;;;;;-142.75;89.17;76436.44;4972216;28;20292;-67
2022/07/02 11:15:16;;;;;;;;;;;;;;;-142.75;89.99;76428.56;4973440;28;19961;-68
2022/07/02 11:17:44;;;;;;;;;;;;;;;-142.75;100.00;76412.81;4973017;28;19918;-68
2022/07/02 11:20:10;;;;;;;;;;;;;;;-142.75;100.00;76367.53;4973233;28;19921;-67
2022/07/02 11:22:35;;;;;;;;;;;;;;;-142.75;95.58;76349.81;4973278;28;19922;-67
2022/07/02 11:25:00;;;;;;;;;;;;;;;-142.75;87.46;76341.97;4973123;28;20044;-67
2022/07/02 11:27:26;;;;;;;;;;;;;;;-142.75;90.59;76328.19;4973181;28;19914;-67
2022/07/02 11:29:54;;;;;;;;;;;;;;;-142.75;81.68;76365.56;4973016;28;20327;-67
2022/07/02 11:32:20;;;;;;;;;;;;;;;-142.75;80.40;76393.13;4973211;28;20334;-67
2022/07/02 11:34:45;;;;;;;;;;;;;;;-142.75;85.72;76402.97;4973057;28;19964;-67
2022/07/02 11:37:22;;;;;;;;;;;;;;;-142.75;90.28;76381.31;4973013;28;19914;-64
2022/07/02 11:39:48;;;;;;;;;;;;;;;-142.75;88.59;76349.81;4971586;28;19969;-67
2022/07/02 11:42:13;;;;;;;;;;;;;;;-142.75;81.76;76292.75;4973074;28;19962;-67
2022/07/02 11:44:38;;;;;;;;;;;;;;;-142.75;84.43;76243.53;4972982;28;19921;-65
2022/07/02 11:47:03;;;;;;;;;;;;;;;-142.75;80.56;76261.25;4972817;28;19960;-65
2022/07/02 11:49:32;;;;;;;;;;;;;;;-142.75;81.26;76330.16;4972564;28;19922;-65
2022/07/02 11:51:57;;;;;;;;;;;;;;;-142.75;91.12;76357.69;4972811;28;20009;-65
2022/07/02 11:54:23;;;;;;;;;;;;;;;-142.75;84.15;76381.31;4972884;28;19953;-65
2022/07/02 11:56:49;;;;;;;;;;;;;;;-142.75;85.47;76385.25;4972731;28;19914;-65
2022/07/02 11:59:15;;;;;;;;;;;;;;;-142.75;87.94;76373.44;4971574;28;19918;-65
2022/07/02 12:01:42;;;;;;;;;;;;;;;-142.75;86.21;76326.22;4971384;28;19968;-65
2022/07/02 12:04:09;;;;;;;;;;;;;;;-142.75;88.99;76245.50;4972701;28;19914;-65
2022/07/02 12:06:41;;;;;;;;;;;;;;;-142.75;81.42;76277.00;4972367;28;20252;-62
2022/07/02 12:09:08;;;;;;;;;;;;;;;-142.75;83.54;76280.94;4972310;28;19914;-65
2022/07/02 12:11:35;;;;;;;;;;;;;;;-142.75;76.26;76340.00;4972590;28;20012;-64
2022/07/02 12:14:00;;;;;;;;;;;;;;;-142.75;77.35;76298.66;4972674;28;20484;-65
2022/07/02 12:16:27;;;;;;;;;;;;;;;-142.75;80.71;76247.47;4972368;28;19919;-65
2022/07/02 12:18:55;;;;;;;;;;;;;;;-142.75;79.78;76225.81;4972244;28;19998;-64